createdAt,value
2019-05-23T00:00:49.511Z,17.73
2019-05-23T00:03:20.671Z,17.53
2019-05-23T00:05:54.043Z,17.65
2019-05-23T00:08:28.064Z,18.63
2019-05-23T00:11:02.651Z,17.00
2019-05-23T00:13:38.808Z,16.30
2019-05-23T00:16:07.787Z,17.07
2019-05-23T00:18:37.395Z,17.20
2019-05-23T00:21:06.388Z,16.27
2019-05-23T00:23:35.970Z,16.67
2019-05-23T00:26:05.275Z,16.62
2019-05-23T00:28:34.415Z,16.17
2019-05-23T00:31:07.491Z,17.27
2019-05-23T00:33:36.834Z,16.57
2019-05-23T00:36:05.755Z,17.75
2019-05-23T00:38:34.647Z,16.52
2019-05-23T00:41:03.687Z,20.90
2019-05-23T00:43:32.727Z,20.20
2019-05-23T00:46:01.870Z,21.65
2019-05-23T00:48:31.214Z,23.73
2019-05-23T00:51:04.594Z,20.88
2019-05-23T00:53:30.327Z,20.15
2019-05-23T00:55:59.620Z,22.13
2019-05-23T00:58:28.979Z,22.42
2019-05-23T01:00:58.485Z,23.05
2019-05-23T01:03:28.198Z,21.62
2019-05-23T01:05:57.253Z,21.80
2019-05-23T01:08:27.174Z,22.67
2019-05-23T01:11:10.806Z,23.55
2019-05-23T01:13:40.143Z,21.93
2019-05-23T01:16:09.167Z,21.73
2019-05-23T01:18:38.223Z,22.73
2019-05-23T01:21:11.414Z,22.13
2019-05-23T01:23:42.075Z,22.00
2019-05-23T01:26:11.254Z,22.55
2019-05-23T01:28:40.311Z,21.82
2019-05-23T01:31:10.539Z,22.48
2019-05-23T01:33:39.567Z,20.68
2019-05-23T01:36:08.686Z,22.55
2019-05-23T01:38:39.679Z,22.22
2019-05-23T01:41:08.986Z,21.33
2019-05-23T01:43:37.918Z,21.20
2019-05-23T01:46:06.942Z,21.12
2019-05-23T01:48:35.970Z,19.98
2019-05-23T01:51:04.955Z,19.62
2019-05-23T01:53:34.062Z,20.62
2019-05-23T01:56:03.127Z,21.15
2019-05-23T01:58:32.414Z,20.68
2019-05-23T02:01:01.866Z,19.82
2019-05-23T02:03:30.782Z,22.77
2019-05-23T02:05:59.878Z,22.77
2019-05-23T02:08:28.898Z,23.02
2019-05-23T02:10:59.102Z,22.50
2019-05-23T02:13:28.947Z,24.47
2019-05-23T02:15:58.318Z,24.20
2019-05-23T02:18:27.426Z,23.73
2019-05-23T02:20:58.431Z,25.57
2019-05-23T02:23:27.614Z,26.07
2019-05-23T02:25:56.644Z,28.52
2019-05-23T02:28:25.949Z,31.68
2019-05-23T02:30:55.638Z,31.97
2019-05-23T02:33:24.647Z,24.95
2019-05-23T02:35:53.987Z,24.27
2019-05-23T02:38:28.201Z,24.95
2019-05-23T02:41:03.192Z,24.30
2019-05-23T02:43:33.199Z,22.62
2019-05-23T02:46:02.358Z,22.17
2019-05-23T02:48:34.309Z,22.27
2019-05-23T02:51:03.836Z,24.18
2019-05-23T02:53:33.062Z,24.63
2019-05-23T02:56:02.457Z,24.82
2019-05-23T02:58:34.493Z,25.50
2019-05-23T03:01:15.365Z,24.67
2019-05-23T03:03:44.798Z,25.40
2019-05-23T03:06:16.074Z,24.37
2019-05-23T03:08:45.153Z,25.88
2019-05-23T03:11:17.681Z,24.65
2019-05-23T03:14:18.086Z,23.35
2019-05-23T03:16:47.245Z,22.73
2019-05-23T03:19:20.314Z,21.68
2019-05-23T03:21:49.736Z,22.58
2019-05-23T03:24:19.251Z,21.07
2019-05-23T03:27:14.696Z,20.08
2019-05-23T03:29:44.009Z,19.42
2019-05-23T03:32:17.927Z,21.77
2019-05-23T03:34:49.352Z,19.25
2019-05-23T03:37:18.456Z,18.80
2019-05-23T03:39:47.519Z,18.70
2019-05-23T03:42:17.001Z,18.80
2019-05-23T03:44:46.221Z,18.48
2019-05-23T03:47:16.052Z,17.90
2019-05-23T03:49:45.138Z,17.98
2019-05-23T03:52:14.713Z,18.67
2019-05-23T03:54:44.498Z,18.70
2019-05-23T03:57:13.500Z,17.70
2019-05-23T03:59:42.474Z,19.85
2019-05-23T04:02:14.041Z,18.77
2019-05-23T04:04:43.026Z,18.50
2019-05-23T04:07:12.066Z,18.82
2019-05-23T04:09:41.251Z,19.20
2019-05-23T04:12:10.202Z,19.57
2019-05-23T04:14:40.586Z,19.65
2019-05-23T04:17:10.049Z,19.12
2019-05-23T04:19:49.127Z,18.75
2019-05-23T04:22:22.630Z,29.25
2019-05-23T04:24:51.841Z,17.67
2019-05-23T04:27:21.352Z,18.12
2019-05-23T04:29:51.567Z,18.80
2019-05-23T04:32:20.789Z,19.50
2019-05-23T04:34:50.090Z,18.90
2019-05-23T04:37:19.484Z,18.37
2019-05-23T04:39:48.598Z,25.57
2019-05-23T04:42:17.699Z,28.85
2019-05-23T04:44:46.733Z,37.78
2019-05-23T04:47:15.965Z,41.85
2019-05-23T04:49:46.083Z,37.85
2019-05-23T04:52:16.626Z,34.98
2019-05-23T04:54:46.251Z,26.75
2019-05-23T04:57:16.803Z,29.15
2019-05-23T04:59:46.257Z,30.17
2019-05-23T05:02:25.518Z,23.38
2019-05-23T05:04:46.305Z,19.80
2019-05-23T05:07:16.388Z,19.40
2019-05-23T05:09:46.429Z,20.48
2019-05-23T05:12:15.489Z,20.55
2019-05-23T05:14:44.539Z,25.97
2019-05-23T05:17:13.706Z,22.33
2019-05-23T09:30:23.811Z,8.58
2019-05-23T10:04:42.051Z,10.45
2019-05-23T11:00:33.303Z,7.40
2019-05-23T11:28:58.559Z,5.85
2019-05-23T12:06:55.482Z,8.20
2019-05-23T12:48:34.839Z,10.45
2019-05-23T12:51:19.261Z,10.68
2019-05-23T13:11:31.209Z,9.08
2019-05-23T13:14:56.016Z,4.97
2019-05-23T13:49:17.828Z,6.05
2019-05-23T13:51:46.797Z,4.78
2019-05-23T13:54:15.476Z,4.85
2019-05-23T13:56:47.633Z,4.45
2019-05-23T13:59:13.213Z,4.55
2019-05-23T14:01:42.015Z,5.20
2019-05-23T14:04:10.689Z,4.92
2019-05-23T14:06:39.403Z,5.47
2019-05-23T14:09:08.512Z,5.60
2019-05-23T14:11:37.266Z,6.00
2019-05-23T14:14:06.840Z,7.45
2019-05-23T14:16:39.288Z,5.15
2019-05-23T14:19:07.956Z,5.00
2019-05-23T14:21:36.680Z,5.53
2019-05-23T14:24:05.444Z,5.10
2019-05-23T14:26:38.313Z,5.20
2019-05-23T14:29:07.017Z,5.17
2019-05-23T14:31:39.911Z,4.25
2019-05-23T14:34:12.292Z,3.87
2019-05-23T14:37:02.587Z,4.25
2019-05-23T14:39:36.079Z,4.00
2019-05-23T14:42:40.414Z,4.00
2019-05-23T14:45:13.680Z,3.60
2019-05-23T14:47:47.368Z,3.70
2019-05-23T14:52:25.819Z,3.65
2019-05-23T14:54:58.559Z,3.12
2019-05-23T14:57:27.211Z,2.83
2019-05-23T14:59:55.851Z,2.83
2019-05-23T15:02:24.451Z,2.72
2019-05-23T15:04:55.140Z,2.90
2019-05-23T15:07:23.967Z,4.95
2019-05-23T15:09:52.706Z,7.03
2019-05-23T15:12:21.403Z,5.97
2019-05-23T15:14:50.078Z,2.45
2019-05-23T15:17:18.762Z,3.22
2019-05-23T15:19:47.326Z,2.90
2019-05-23T15:22:16.102Z,2.90
2019-05-23T15:24:54.906Z,2.75
2019-05-23T15:27:23.514Z,3.27
2019-05-23T15:29:52.591Z,2.72
2019-05-23T15:32:21.286Z,2.87
2019-05-23T15:34:50.034Z,2.90
2019-05-23T15:37:18.734Z,3.20
2019-05-23T15:39:47.434Z,2.80
2019-05-23T15:42:16.198Z,2.92
2019-05-23T15:44:44.916Z,3.47
2019-05-23T15:47:13.735Z,3.67
2019-05-23T15:49:43.085Z,3.58
2019-05-23T15:52:21.992Z,3.67
2019-05-23T15:54:55.499Z,3.60
2019-05-23T15:57:30.366Z,3.17
2019-05-23T16:00:04.682Z,3.60
2019-05-23T16:02:37.542Z,4.03
2019-05-23T16:05:06.512Z,3.55
2019-05-23T16:07:35.751Z,3.12
2019-05-23T16:10:05.151Z,3.62
2019-05-23T16:12:33.849Z,3.50
2019-05-23T16:15:02.466Z,3.92
2019-05-23T16:17:31.110Z,4.08
2019-05-23T16:19:59.890Z,4.25
2019-05-23T16:22:28.640Z,3.70
2019-05-23T16:24:57.323Z,4.15
2019-05-23T16:27:26.233Z,4.25
2019-05-23T16:29:54.934Z,4.55
2019-05-23T16:32:23.733Z,4.72
2019-05-23T16:34:52.706Z,4.95
2019-05-23T16:37:21.426Z,4.93
2019-05-23T16:39:50.761Z,5.03
2019-05-23T16:45:08.765Z,4.33
2019-05-23T16:47:41.317Z,4.10
2019-05-23T16:50:18.660Z,4.40
2019-05-23T16:52:47.475Z,3.75
2019-05-23T16:55:22.448Z,3.50
2019-05-23T16:57:54.787Z,3.65
2019-05-23T17:00:30.165Z,3.75
2019-05-23T17:03:06.664Z,4.12
2019-05-23T17:05:45.371Z,3.85
2019-05-23T17:08:20.579Z,3.77
2019-05-23T17:10:54.268Z,3.35
2019-05-23T17:13:33.390Z,2.92
2019-05-23T17:16:08.648Z,3.10
2019-05-23T17:18:42.809Z,3.35
2019-05-23T17:21:15.775Z,3.45
2019-05-23T17:23:52.494Z,4.35
2019-05-23T17:26:26.745Z,4.45
2019-05-23T17:28:56.021Z,4.30
2019-05-23T17:31:28.473Z,3.10
2019-05-23T17:34:07.502Z,3.20
2019-05-23T17:36:36.493Z,3.35
2019-05-23T17:39:07.128Z,3.10
2019-05-23T17:41:36.426Z,2.75
2019-05-23T17:44:05.339Z,2.60
2019-05-23T17:46:34.042Z,2.75
2019-05-23T17:49:02.971Z,2.90
2019-05-23T17:51:31.633Z,2.80
2019-05-23T17:54:01.179Z,2.72
2019-05-23T17:56:30.137Z,6.08
2019-05-23T17:58:59.141Z,7.28
2019-05-23T18:01:27.816Z,11.25
2019-05-23T18:03:56.361Z,6.45
2019-05-23T18:06:25.113Z,4.05
2019-05-23T18:08:53.838Z,3.85
2019-05-23T18:11:22.346Z,3.00
2019-05-23T18:13:50.997Z,8.03
2019-05-23T18:16:19.825Z,3.75
2019-05-23T18:18:48.445Z,2.95
2019-05-23T18:21:17.242Z,2.58
2019-05-23T18:23:45.976Z,2.42
2019-05-23T18:26:14.588Z,2.52
2019-05-23T18:28:44.133Z,3.00
2019-05-23T18:31:15.700Z,2.67
2019-05-23T18:33:44.306Z,2.83
2019-05-23T18:36:12.983Z,2.73
2019-05-23T18:38:41.677Z,2.60
2019-05-23T18:41:10.329Z,2.08
2019-05-23T18:43:39.041Z,2.62
2019-05-23T18:46:10.349Z,2.12
2019-05-23T18:48:38.944Z,2.00
2019-05-23T18:51:07.817Z,2.40
2019-05-23T18:53:36.538Z,2.40
2019-05-23T18:56:05.639Z,1.80
2019-05-23T18:58:34.522Z,1.98
2019-05-23T19:01:05.540Z,2.00
2019-05-23T19:03:34.283Z,1.82
2019-05-23T19:06:02.846Z,2.20
2019-05-23T19:08:31.778Z,2.22
2019-05-23T19:11:00.665Z,2.33
2019-05-23T19:13:29.206Z,2.30
2019-05-23T19:15:58.078Z,2.40
2019-05-23T19:18:26.986Z,2.25
2019-05-23T19:20:56.602Z,1.98
2019-05-23T19:23:26.290Z,2.12
2019-05-23T19:25:55.677Z,2.20
2019-05-23T19:28:25.337Z,2.00
2019-05-23T19:30:54.978Z,2.10
2019-05-23T19:33:24.221Z,1.57
2019-05-23T19:35:53.061Z,2.20
2019-05-23T19:38:21.933Z,2.10
2019-05-23T19:40:50.831Z,2.10
2019-05-23T19:43:19.814Z,2.12
2019-05-23T19:45:49.036Z,1.90
2019-05-23T19:48:18.302Z,1.98
2019-05-23T19:50:47.409Z,2.00
2019-05-23T19:53:16.297Z,1.87
2019-05-23T19:55:45.150Z,1.82
2019-05-23T19:58:13.999Z,1.80
2019-05-23T20:00:42.749Z,2.33
2019-05-23T20:03:11.630Z,1.80
2019-05-23T20:05:41.121Z,1.62
2019-05-23T20:08:10.102Z,2.10
2019-05-23T20:10:39.139Z,1.87
2019-05-23T20:13:07.841Z,1.90
2019-05-23T20:15:36.876Z,1.95
2019-05-23T20:18:06.174Z,1.90
2019-05-23T20:20:35.913Z,2.10
2019-05-23T20:23:05.121Z,2.33
2019-05-23T20:25:34.206Z,2.17
2019-05-23T20:28:03.213Z,4.17
2019-05-23T20:30:53.697Z,2.70
2019-05-23T20:33:22.526Z,2.70
2019-05-23T20:35:51.502Z,2.45
2019-05-23T20:38:20.886Z,2.40
2019-05-23T20:40:49.854Z,2.92
2019-05-23T20:43:19.069Z,2.05
2019-05-23T20:45:47.661Z,2.22
2019-05-23T20:48:16.206Z,1.87
2019-05-23T20:50:44.841Z,2.12
2019-05-23T20:53:13.481Z,2.20
2019-05-23T20:55:42.300Z,2.08
2019-05-23T20:58:11.074Z,2.00
2019-05-23T21:00:51.348Z,2.17
2019-05-23T21:03:20.203Z,2.10
2019-05-23T21:05:48.847Z,2.50
2019-05-23T21:08:17.411Z,2.45
2019-05-23T21:10:47.144Z,3.15
2019-05-23T21:13:15.819Z,2.00
2019-05-23T21:15:44.498Z,2.42
2019-05-23T21:18:14.085Z,2.10
2019-05-23T21:20:42.972Z,2.27
2019-05-23T21:23:11.779Z,2.52
2019-05-23T21:25:41.343Z,2.25
2019-05-23T21:28:10.199Z,2.50
2019-05-23T21:30:38.947Z,2.30
2019-05-23T21:33:07.503Z,3.50
2019-05-23T21:35:36.142Z,5.25
2019-05-23T21:38:05.216Z,6.68
2019-05-23T21:40:39.827Z,10.45
2019-05-23T21:43:31.479Z,12.75
2019-05-23T21:46:00.319Z,11.38
2019-05-23T21:48:29.258Z,9.85
2019-05-23T21:50:58.406Z,10.72
2019-05-23T21:53:27.279Z,8.00
2019-05-23T21:55:55.921Z,7.65
2019-05-23T21:58:24.793Z,7.87
2019-05-23T22:01:16.383Z,7.50
2019-05-23T22:03:45.035Z,7.45
2019-05-23T22:06:13.702Z,8.80
2019-05-23T22:08:47.517Z,12.70
2019-05-23T22:11:17.860Z,11.00
2019-05-23T22:13:46.527Z,9.25
2019-05-23T22:16:15.174Z,7.73
2019-05-23T22:18:45.576Z,12.15
2019-05-23T22:21:14.629Z,10.60
2019-05-23T22:23:43.247Z,9.80
2019-05-23T22:26:12.168Z,11.63
2019-05-23T22:28:41.807Z,7.70
2019-05-23T22:31:41.282Z,5.60
2019-05-23T22:34:16.013Z,4.40
2019-05-23T22:36:47.494Z,4.25
2019-05-23T22:39:16.690Z,3.77
2019-05-23T22:41:45.210Z,4.47
2019-05-23T22:44:13.974Z,4.40
2019-05-23T22:46:42.846Z,4.25
2019-05-23T22:49:11.458Z,3.75
2019-05-23T22:51:41.810Z,4.10
2019-05-23T22:54:10.483Z,3.40
2019-05-23T22:56:42.074Z,4.00
2019-05-23T22:59:10.750Z,4.42
2019-05-23T23:01:39.654Z,4.87
2019-05-23T23:06:44.018Z,7.83
2019-05-23T23:09:13.086Z,12.65
2019-05-23T23:11:43.194Z,16.20
2019-05-23T23:14:14.270Z,18.77
2019-05-23T23:16:45.101Z,23.22
2019-05-23T23:19:15.483Z,18.93
2019-05-23T23:21:45.786Z,19.57
2019-05-23T23:24:14.421Z,17.90
2019-05-23T23:26:48.489Z,19.12
2019-05-23T23:29:17.569Z,18.07
2019-05-23T23:31:46.150Z,19.10
2019-05-23T23:34:14.770Z,12.73
2019-05-23T23:36:43.273Z,9.38
2019-05-23T23:39:11.973Z,5.50
2019-05-23T23:41:40.585Z,5.05
2019-05-23T23:44:09.151Z,5.30
2019-05-23T23:46:43.087Z,4.78
2019-05-23T23:49:16.997Z,4.92
2019-05-23T23:51:50.837Z,4.80
2019-05-23T23:54:24.795Z,4.75
2019-05-23T23:56:58.585Z,4.62
2019-05-23T23:59:26.280Z,4.25
